Time,TemperatureF,DewpointF,PressureIn,WindDirection,WindDirectionDegrees,WindSpeedMPH,WindSpeedGustMPH,Humidity,HourlyPrecipIn,Conditions,Clouds,dailyrainin,SolarRadiationWatts/m^2,SoftwareType,DateUTC
2013-02-22 00:05:00,43.9,34.7,30.08,West,267,0.0,0.0,70,0.00,,,0.00,0,Wunderground v.1.15,2013-02-22 08:05:00,
2013-02-22 00:14:00,44.0,34.8,30.08,West,267,0.0,0.0,70,0.00,,,0.00,0,Wunderground v.1.15,2013-02-22 08:14:00,
2013-02-22 00:19:00,43.9,34.7,30.08,West,267,0.0,0.0,70,0.00,,,0.00,0,Wunderground v.1.15,2013-02-22 08:19:00,
2013-02-22 00:25:00,43.9,34.4,30.08,West,267,0.0,0.0,69,0.00,,,0.00,0,Wunderground v.1.15,2013-02-22 08:25:00,
2013-02-22 00:30:00,43.8,34.6,30.08,West,267,0.0,0.0,70,0.00,,,0.00,0,Wunderground v.1.15,2013-02-22 08:30:00,
2013-02-22 00:40:00,43.6,34.5,30.08,West,267,0.0,0.0,70,0.00,,,0.00,0,Wunderground v.1.15,2013-02-22 08:40:00,
2013-02-22 00:49:00,43.5,34.0,30.08,West,267,0.0,0.0,69,0.00,,,0.00,0,Wunderground v.1.15,2013-02-22 08:49:00,
2013-02-22 00:55:00,43.3,33.8,30.08,West,267,0.0,0.0,69,0.00,,,0.00,0,Wunderground v.1.15,2013-02-22 08:55:00,
2013-02-22 01:05:00,43.4,33.9,30.08,West,267,0.0,0.0,69,0.00,,,0.00,0,Wunderground v.1.15,2013-02-22 09:05:00,
2013-02-22 01:14:00,43.6,34.1,30.09,West,267,0.0,0.0,69,0.00,,,0.00,0,Wunderground v.1.15,2013-02-22 09:14:00,
2013-02-22 01:19:00,43.6,34.1,30.09,West,267,0.0,0.0,69,0.00,,,0.00,0,Wunderground v.1.15,2013-02-22 09:19:00,
2013-02-22 01:25:00,43.5,33.6,30.09,West,267,0.0,0.0,68,0.00,,,0.00,0,Wunderground v.1.15,2013-02-22 09:25:00,
2013-02-22 01:30:00,43.5,33.6,30.09,West,267,0.0,0.0,68,0.00,,,0.00,0,Wunderground v.1.15,2013-02-22 09:30:00,
2013-02-22 01:40:00,43.3,33.4,30.09,West,267,0.0,0.0,68,0.00,,,0.00,0,Wunderground v.1.15,2013-02-22 09:40:00,
2013-02-22 01:49:00,43.1,32.9,30.09,West,267,0.0,0.0,67,0.00,,,0.00,0,Wunderground v.1.15,2013-02-22 09:49:00,
2013-02-22 01:54:00,43.0,32.8,30.09,West,267,0.0,0.0,67,0.00,,,0.00,0,Wunderground v.1.15,2013-02-22 09:54:00,
2013-02-22 01:59:00,42.9,32.7,30.09,West,267,0.0,0.0,67,0.00,,,0.00,0,Wunderground v.1.15,2013-02-22 09:59:00,
2013-02-22 02:05:00,42.8,33.0,30.09,West,267,0.0,0.0,68,0.00,,,0.00,0,Wunderground v.1.15,2013-02-22 10:05:00,
2013-02-22 02:15:00,42.5,32.7,30.09,West,267,0.0,0.0,68,0.00,,,0.00,0,Wunderground v.1.15,2013-02-22 10:15:00,
2013-02-22 02:24:00,42.3,32.5,30.09,West,267,0.0,0.0,68,0.00,,,0.00,0,Wunderground v.1.15,2013-02-22 10:24:00,
2013-02-22 02:29:00,42.3,32.5,30.09,West,267,0.0,0.0,68,0.00,,,0.00,0,Wunderground v.1.15,2013-02-22 10:29:00,
2013-02-22 02:35:00,42.2,32.8,30.08,West,267,0.0,0.0,69,0.00,,,0.00,0,Wunderground v.1.15,2013-02-22 10:35:00,
2013-02-22 02:44:00,42.0,32.6,30.08,West,267,0.0,0.0,69,0.00,,,0.00,0,Wunderground v.1.15,2013-02-22 10:44:00,
2013-02-22 02:49:00,42.0,32.6,30.09,NW,314,1.0,1.0,69,0.00,,,0.00,0,Wunderground v.1.15,2013-02-22 10:49:00,
2013-02-22 02:55:00,42.0,32.6,30.08,NW,314,0.0,1.0,69,0.00,,,0.00,0,Wunderground v.1.15,2013-02-22 10:55:00,
2013-02-22 03:00:00,41.9,32.1,30.08,NW,314,0.0,0.0,68,0.00,,,0.00,0,Wunderground v.1.15,2013-02-22 11:00:00,
2013-02-22 03:05:00,41.8,32.0,30.09,NW,314,0.0,0.0,68,0.00,,,0.00,0,Wunderground v.1.15,2013-02-22 11:05:00,
2013-02-22 03:14:00,41.8,32.0,30.08,NW,314,0.0,0.0,68,0.00,,,0.00,0,Wunderground v.1.15,2013-02-22 11:14:00,
2013-02-22 03:24:00,41.8,32.4,30.09,NW,314,0.0,0.0,69,0.00,,,0.00,0,Wunderground v.1.15,2013-02-22 11:24:00,
2013-02-22 03:30:00,41.9,32.5,30.08,NW,314,0.0,0.0,69,0.00,,,0.00,0,Wunderground v.1.15,2013-02-22 11:30:00,
2013-02-22 03:40:00,42.0,32.6,30.09,NW,314,1.0,1.0,69,0.00,,,0.00,0,Wunderground v.1.15,2013-02-22 11:40:00,
2013-02-22 03:45:00,42.0,32.2,30.08,NW,314,0.0,1.0,68,0.00,,,0.00,0,Wunderground v.1.15,2013-02-22 11:45:00,
2013-02-22 03:54:00,41.8,32.4,30.09,NW,314,0.0,0.0,69,0.00,,,0.00,0,Wunderground v.1.15,2013-02-22 11:54:00,
2013-02-22 03:59:00,41.6,32.2,30.09,NW,314,0.0,0.0,69,0.00,,,0.00,0,Wunderground v.1.15,2013-02-22 11:59:00,
2013-02-22 04:05:00,41.5,32.1,30.09,NW,314,0.0,0.0,69,0.00,,,0.00,0,Wunderground v.1.15,2013-02-22 12:05:00,
2013-02-22 04:14:00,41.6,32.2,30.09,NW,314,0.0,0.0,69,0.00,,,0.00,0,Wunderground v.1.15,2013-02-22 12:14:00,
2013-02-22 04:20:00,41.6,32.2,30.09,NW,314,0.0,0.0,69,0.00,,,0.00,0,Wunderground v.1.15,2013-02-22 12:20:00,
2013-02-22 04:25:00,41.6,32.2,30.09,NW,314,0.0,0.0,69,0.00,,,0.00,0,Wunderground v.1.15,2013-02-22 12:25:00,
2013-02-22 04:35:00,41.7,32.6,30.09,NW,314,0.0,0.0,70,0.00,,,0.00,0,Wunderground v.1.15,2013-02-22 12:35:00,
2013-02-22 04:40:00,41.7,32.3,30.10,NW,314,0.0,0.0,69,0.00,,,0.00,0,Wunderground v.1.15,2013-02-22 12:40:00,
2013-02-22 04:49:00,41.5,32.1,30.10,NW,314,0.0,0.0,69,0.00,,,0.00,0,Wunderground v.1.15,2013-02-22 12:49:00,
2013-02-22 04:54:00,41.5,32.1,30.10,NW,314,0.0,0.0,69,0.00,,,0.00,0,Wunderground v.1.15,2013-02-22 12:54:00,
2013-02-22 05:05:00,41.5,32.4,30.10,NW,314,0.0,0.0,70,0.00,,,0.00,0,Wunderground v.1.15,2013-02-22 13:05:00,
2013-02-22 05:14:00,41.3,32.2,30.10,NW,314,0.0,0.0,70,0.00,,,0.00,0,Wunderground v.1.15,2013-02-22 13:14:00,
2013-02-22 05:20:00,41.4,32.3,30.11,NW,314,0.0,0.0,70,0.00,,,0.00,0,Wunderground v.1.15,2013-02-22 13:20:00,
2013-02-22 05:25:00,41.4,32.0,30.10,NW,314,0.0,0.0,69,0.00,,,0.00,0,Wunderground v.1.15,2013-02-22 13:25:00,
2013-02-22 05:35:00,41.5,32.1,30.11,NW,314,1.0,1.0,69,0.00,,,0.00,0,Wunderground v.1.15,2013-02-22 13:35:00,
2013-02-22 05:45:00,41.6,32.2,30.11,NW,314,2.0,2.0,69,0.00,,,0.00,0,Wunderground v.1.15,2013-02-22 13:45:00,
2013-02-22 05:50:00,41.5,31.7,30.11,NW,314,0.0,0.0,68,0.00,,,0.00,0,Wunderground v.1.15,2013-02-22 13:50:00,
2013-02-22 05:59:00,41.3,31.5,30.11,NW,314,0.0,0.0,68,0.00,,,0.00,0,Wunderground v.1.15,2013-02-22 13:59:00,
2013-02-22 06:05:00,41.2,31.4,30.11,NW,314,0.0,0.0,68,0.00,,,0.00,0,Wunderground v.1.15,2013-02-22 14:05:00,
2013-02-22 06:14:00,41.2,31.1,30.12,NW,314,0.0,0.0,67,0.00,,,0.00,0,Wunderground v.1.15,2013-02-22 14:14:00,
2013-02-22 06:19:00,41.1,31.0,30.12,NW,314,0.0,0.0,67,0.00,,,0.00,0,Wunderground v.1.15,2013-02-22 14:19:00,
2013-02-22 06:24:00,40.9,30.8,30.12,NW,314,0.0,0.0,67,0.00,,,0.00,0,Wunderground v.1.15,2013-02-22 14:24:00,
2013-02-22 06:29:00,40.8,30.7,30.12,NW,314,0.0,0.0,67,0.00,,,0.00,0,Wunderground v.1.15,2013-02-22 14:29:00,
2013-02-22 06:39:00,40.6,30.9,30.13,NW,314,0.0,0.0,68,0.00,,,0.00,0,Wunderground v.1.15,2013-02-22 14:39:00,
2013-02-22 06:44:00,40.7,30.6,30.13,NW,314,0.0,0.0,67,0.00,,,0.00,0,Wunderground v.1.15,2013-02-22 14:44:00,
2013-02-22 06:50:00,40.8,30.3,30.13,NW,314,0.0,0.0,66,0.00,,,0.00,0,Wunderground v.1.15,2013-02-22 14:50:00,
2013-02-22 06:55:00,40.9,30.4,30.14,NW,314,0.0,0.0,66,0.00,,,0.00,0,Wunderground v.1.15,2013-02-22 14:55:00,
2013-02-22 07:05:00,41.1,30.6,30.14,NW,314,1.0,1.0,66,0.00,,,0.00,0,Wunderground v.1.15,2013-02-22 15:05:00,
2013-02-22 07:14:00,41.3,30.8,30.15,NW,314,0.0,0.0,66,0.00,,,0.00,0,Wunderground v.1.15,2013-02-22 15:14:00,
2013-02-22 07:19:00,41.5,31.0,30.15,NW,314,0.0,0.0,66,0.00,,,0.00,0,Wunderground v.1.15,2013-02-22 15:19:00,
2013-02-22 07:25:00,41.8,30.9,30.15,NW,314,0.0,0.0,65,0.00,,,0.00,0,Wunderground v.1.15,2013-02-22 15:25:00,
2013-02-22 07:35:00,42.6,31.7,30.15,NW,314,0.0,0.0,65,0.00,,,0.00,0,Wunderground v.1.15,2013-02-22 15:35:00,
2013-02-22 07:44:00,43.4,32.4,30.16,NW,314,0.0,0.0,65,0.00,,,0.00,0,Wunderground v.1.15,2013-02-22 15:44:00,
2013-02-22 07:49:00,43.8,33.2,30.16,NW,314,0.0,0.0,66,0.00,,,0.00,0,Wunderground v.1.15,2013-02-22 15:49:00,
2013-02-22 07:54:00,44.2,33.6,30.16,NW,314,0.0,0.0,66,0.00,,,0.00,0,Wunderground v.1.15,2013-02-22 15:54:00,
2013-02-22 08:00:00,44.6,33.9,30.17,NW,314,0.0,0.0,66,0.00,,,0.00,0,Wunderground v.1.15,2013-02-22 16:00:00,
2013-02-22 08:05:00,44.9,34.2,30.16,NW,314,0.0,0.0,66,0.00,,,0.00,0,Wunderground v.1.15,2013-02-22 16:05:00,
2013-02-22 08:15:00,45.8,35.1,30.17,NW,314,0.0,0.0,66,0.00,,,0.00,0,Wunderground v.1.15,2013-02-22 16:15:00,
2013-02-22 08:20:00,46.3,35.6,30.17,NW,314,0.0,0.0,66,0.00,,,0.00,0,Wunderground v.1.15,2013-02-22 16:20:00,
2013-02-22 08:29:00,47.1,36.3,30.17,NW,314,0.0,0.0,66,0.00,,,0.00,0,Wunderground v.1.15,2013-02-22 16:29:00,
2013-02-22 08:39:00,48.0,36.8,30.17,NW,314,0.0,0.0,65,0.00,,,0.00,0,Wunderground v.1.15,2013-02-22 16:39:00,
2013-02-22 08:44:00,48.5,37.3,30.17,NW,314,0.0,0.0,65,0.00,,,0.00,0,Wunderground v.1.15,2013-02-22 16:44:00,
2013-02-22 08:49:00,49.1,38.2,30.17,NW,314,0.0,0.0,66,0.00,,,0.00,0,Wunderground v.1.15,2013-02-22 16:49:00,
2013-02-22 08:55:00,49.7,38.8,30.17,NW,314,0.0,0.0,66,0.00,,,0.00,0,Wunderground v.1.15,2013-02-22 16:55:00,
2013-02-22 09:05:00,50.6,39.3,30.17,NW,314,0.0,0.0,65,0.00,,,0.00,0,Wunderground v.1.15,2013-02-22 17:05:00,
2013-02-22 09:14:00,51.7,39.5,30.17,NW,314,0.0,0.0,63,0.00,,,0.00,0,Wunderground v.1.15,2013-02-22 17:14:00,
2013-02-22 09:19:00,52.3,39.2,30.17,NW,314,1.0,1.0,61,0.00,,,0.00,0,Wunderground v.1.15,2013-02-22 17:19:00,
2013-02-22 09:25:00,52.8,39.7,30.18,NW,314,2.0,2.0,61,0.00,,,0.00,0,Wunderground v.1.15,2013-02-22 17:25:00,
2013-02-22 09:30:00,53.3,40.2,30.18,NW,314,0.0,0.0,61,0.00,,,0.00,0,Wunderground v.1.15,2013-02-22 17:30:00,
2013-02-22 09:40:00,54.2,40.6,30.18,SSW,213,0.0,0.0,60,0.00,,,0.00,0,Wunderground v.1.15,2013-02-22 17:40:00,
2013-02-22 09:45:00,54.8,41.6,30.18,South,176,2.0,2.0,61,0.00,,,0.00,0,Wunderground v.1.15,2013-02-22 17:45:00,
2013-02-22 09:54:00,55.4,41.7,30.18,SSE,156,2.0,2.0,60,0.00,,,0.00,0,Wunderground v.1.15,2013-02-22 17:54:00,
2013-02-22 09:59:00,55.6,41.9,30.18,SW,228,2.0,2.0,60,0.00,,,0.00,0,Wunderground v.1.15,2013-02-22 17:59:00,
2013-02-22 10:05:00,55.6,41.5,30.18,SSW,201,3.0,3.0,59,0.00,,,0.00,0,Wunderground v.1.15,2013-02-22 18:05:00,
2013-02-22 10:14:00,55.9,41.8,30.18,SSW,204,2.0,2.0,59,0.00,,,0.00,0,Wunderground v.1.15,2013-02-22 18:14:00,
2013-02-22 10:19:00,56.5,41.4,30.18,SSW,203,0.0,0.0,57,0.00,,,0.00,0,Wunderground v.1.15,2013-02-22 18:19:00,
2013-02-22 10:24:00,56.9,41.4,30.17,SE,138,2.0,2.0,56,0.00,,,0.00,0,Wunderground v.1.15,2013-02-22 18:24:00,
2013-02-22 10:30:00,57.2,42.1,30.17,SSW,209,2.0,2.0,57,0.00,,,0.00,0,Wunderground v.1.15,2013-02-22 18:30:00,
2013-02-22 10:39:00,57.6,42.0,30.17,South,191,2.0,2.0,56,0.00,,,0.00,0,Wunderground v.1.15,2013-02-22 18:39:00,
2013-02-22 10:45:00,57.5,41.4,30.17,SSW,193,2.0,2.0,55,0.00,,,0.00,0,Wunderground v.1.15,2013-02-22 18:45:00,
2013-02-22 10:54:00,57.1,41.5,30.17,SW,223,3.0,3.0,56,0.00,,,0.00,0,Wunderground v.1.15,2013-02-22 18:54:00,
2013-02-22 10:59:00,57.1,42.0,30.17,SW,235,3.0,3.0,57,0.00,,,0.00,0,Wunderground v.1.15,2013-02-22 18:59:00,
2013-02-22 11:05:00,57.1,42.0,30.17,SW,221,0.0,3.0,57,0.00,,,0.00,0,Wunderground v.1.15,2013-02-22 19:05:00,
2013-02-22 11:14:00,57.9,42.3,30.17,SW,235,2.0,2.0,56,0.00,,,0.00,0,Wunderground v.1.15,2013-02-22 19:14:00,
2013-02-22 11:19:00,58.4,42.8,30.17,South,174,3.0,3.0,56,0.00,,,0.00,0,Wunderground v.1.15,2013-02-22 19:19:00,
2013-02-22 11:24:00,58.2,42.1,30.16,SSW,203,4.0,4.0,55,0.00,,,0.00,0,Wunderground v.1.15,2013-02-22 19:24:00,
2013-02-22 11:30:00,57.8,42.2,30.17,SSE,153,3.0,3.0,56,0.00,,,0.00,0,Wunderground v.1.15,2013-02-22 19:30:00,
2013-02-22 11:39:00,57.8,42.2,30.16,SW,216,4.0,4.0,56,0.00,,,0.00,0,Wunderground v.1.15,2013-02-22 19:39:00,
2013-02-22 11:45:00,58.0,42.8,30.16,South,173,1.0,4.0,57,0.00,,,0.00,0,Wunderground v.1.15,2013-02-22 19:45:00,
2013-02-22 11:54:00,58.3,43.1,30.16,South,180,4.0,4.0,57,0.00,,,0.00,0,Wunderground v.1.15,2013-02-22 19:54:00,
2013-02-22 11:59:00,58.3,43.1,30.16,South,182,2.0,2.0,57,0.00,,,0.00,0,Wunderground v.1.15,2013-02-22 19:59:00,
2013-02-22 12:05:00,58.4,42.8,30.15,SSW,192,3.0,3.0,56,0.00,,,0.00,0,Wunderground v.1.15,2013-02-22 20:05:00,
2013-02-22 12:10:00,58.7,43.0,30.15,SE,140,0.0,0.0,56,0.00,,,0.00,0,Wunderground v.1.15,2013-02-22 20:10:00,
2013-02-22 12:19:00,59.0,42.8,30.15,SSW,209,4.0,4.0,55,0.00,,,0.00,0,Wunderground v.1.15,2013-02-22 20:19:00,
2013-02-22 12:24:00,58.8,42.7,30.14,South,173,3.0,4.0,55,0.00,,,0.00,0,Wunderground v.1.15,2013-02-22 20:24:00,
2013-02-22 12:30:00,58.8,43.1,30.14,South,185,6.0,6.0,56,0.00,,,0.00,0,Wunderground v.1.15,2013-02-22 20:30:00,
2013-02-22 12:40:00,58.8,43.6,30.14,SW,227,3.0,3.0,57,0.00,,,0.00,0,Wunderground v.1.15,2013-02-22 20:40:00,
2013-02-22 12:45:00,58.8,43.1,30.13,South,172,2.0,3.0,56,0.00,,,0.00,0,Wunderground v.1.15,2013-02-22 20:45:00,
2013-02-22 12:54:00,59.1,42.5,30.13,SW,231,4.0,4.0,54,0.00,,,0.00,0,Wunderground v.1.15,2013-02-22 20:54:00,
2013-02-22 12:59:00,59.4,42.3,30.13,SSW,198,3.0,3.0,53,0.00,,,0.00,0,Wunderground v.1.15,2013-02-22 20:59:00,
2013-02-22 13:05:00,60.1,42.4,30.13,SSW,196,6.0,6.0,52,0.00,,,0.00,0,Wunderground v.1.15,2013-02-22 21:05:00,
2013-02-22 13:14:00,61.3,43.5,30.12,SSW,208,3.0,3.0,52,0.00,,,0.00,0,Wunderground v.1.15,2013-02-22 21:14:00,
2013-02-22 13:19:00,61.1,42.8,30.12,South,190,5.0,5.0,51,0.00,,,0.00,0,Wunderground v.1.15,2013-02-22 21:19:00,
2013-02-22 13:24:00,60.3,43.1,30.12,SW,226,1.0,5.0,53,0.00,,,0.00,0,Wunderground v.1.15,2013-02-22 21:24:00,
2013-02-22 13:30:00,61.0,41.2,30.12,SW,234,1.0,1.0,48,0.00,,,0.00,0,Wunderground v.1.15,2013-02-22 21:30:00,
2013-02-22 13:40:00,63.5,42.3,30.11,SW,227,0.0,0.0,46,0.00,,,0.00,0,Wunderground v.1.15,2013-02-22 21:40:00,
2013-02-22 13:49:00,64.8,42.4,30.11,SSW,213,0.0,0.0,44,0.00,,,0.00,0,Wunderground v.1.15,2013-02-22 21:49:00,
2013-02-22 13:54:00,64.5,41.5,30.11,WSW,239,1.0,1.0,43,0.00,,,0.00,0,Wunderground v.1.15,2013-02-22 21:54:00,
2013-02-22 14:00:00,64.4,43.2,30.11,SW,235,0.0,0.0,46,0.00,,,0.00,0,Wunderground v.1.15,2013-02-22 22:00:00,
2013-02-22 14:05:00,64.8,44.1,30.11,SW,223,0.0,0.0,47,0.00,,,0.00,0,Wunderground v.1.15,2013-02-22 22:05:00,
2013-02-22 14:15:00,62.8,42.8,30.11,SW,233,3.0,4.0,48,0.00,,,0.00,0,Wunderground v.1.15,2013-02-22 22:15:00,
2013-02-22 14:24:00,62.1,42.2,30.10,SW,229,8.0,8.0,48,0.00,,,0.00,0,Wunderground v.1.15,2013-02-22 22:24:00,
2013-02-22 14:30:00,61.6,41.7,30.11,WSW,240,1.0,1.0,48,0.00,,,0.00,0,Wunderground v.1.15,2013-02-22 22:30:00,
2013-02-22 14:39:00,62.7,43.3,30.10,SW,236,3.0,3.0,49,0.00,,,0.00,0,Wunderground v.1.15,2013-02-22 22:39:00,
2013-02-22 14:45:00,62.2,43.8,30.10,SW,223,1.0,3.0,51,0.00,,,0.00,0,Wunderground v.1.15,2013-02-22 22:45:00,
2013-02-22 14:54:00,61.6,43.8,30.10,WSW,243,2.0,3.0,52,0.00,,,0.00,0,Wunderground v.1.15,2013-02-22 22:54:00,
2013-02-22 14:59:00,62.5,43.6,30.10,SW,220,4.0,4.0,50,0.00,,,0.00,0,Wunderground v.1.15,2013-02-22 22:59:00,
2013-02-22 15:04:00,62.1,42.7,30.10,SW,221,4.0,4.0,49,0.00,,,0.00,0,Wunderground v.1.15,2013-02-22 23:04:00,
2013-02-22 15:14:00,60.5,43.3,30.10,SSW,199,5.0,5.0,53,0.00,,,0.00,0,Wunderground v.1.15,2013-02-22 23:14:00,
2013-02-22 15:19:00,59.6,42.9,30.10,SSW,211,4.0,4.0,54,0.00,,,0.00,0,Wunderground v.1.15,2013-02-22 23:19:00,
2013-02-22 15:25:00,59.8,43.1,30.10,SW,221,2.0,4.0,54,0.00,,,0.00,0,Wunderground v.1.15,2013-02-22 23:25:00,
2013-02-22 15:35:00,59.4,42.7,30.10,SSE,164,5.0,6.0,54,0.00,,,0.00,0,Wunderground v.1.15,2013-02-22 23:35:00,
2013-02-22 15:40:00,58.9,41.8,30.10,SW,236,6.0,6.0,53,0.00,,,0.00,0,Wunderground v.1.15,2013-02-22 23:40:00,
2013-02-22 15:49:00,60.4,43.7,30.10,SSW,212,0.0,0.0,54,0.00,,,0.00,0,Wunderground v.1.15,2013-02-22 23:49:00,
2013-02-22 15:55:00,61.5,39.4,30.10,SW,228,3.0,3.0,44,0.00,,,0.00,0,Wunderground v.1.15,2013-02-22 23:55:00,
2013-02-22 16:00:00,60.2,40.4,30.10,SW,229,2.0,2.0,48,0.00,,,0.00,0,Wunderground v.1.15,2013-02-23 00:00:00,
2013-02-22 16:05:00,60.2,41.5,30.10,SW,228,1.0,2.0,50,0.00,,,0.00,0,Wunderground v.1.15,2013-02-23 00:05:00,
2013-02-22 16:14:00,59.9,40.1,30.10,South,182,0.0,3.0,48,0.00,,,0.00,0,Wunderground v.1.15,2013-02-23 00:14:00,
2013-02-22 16:19:00,59.8,39.5,30.10,SSW,202,4.0,4.0,47,0.00,,,0.00,0,Wunderground v.1.15,2013-02-23 00:19:00,
2013-02-22 16:24:00,59.6,39.9,30.10,WSW,244,0.0,4.0,48,0.00,,,0.00,0,Wunderground v.1.15,2013-02-23 00:24:00,
2013-02-22 16:30:00,59.5,39.8,30.11,South,181,0.0,0.0,48,0.00,,,0.00,0,Wunderground v.1.15,2013-02-23 00:30:00,
2013-02-22 16:39:00,60.2,40.4,30.11,South,188,1.0,1.0,48,0.00,,,0.00,0,Wunderground v.1.15,2013-02-23 00:39:00,
2013-02-22 16:45:00,60.5,40.2,30.10,South,191,0.0,1.0,47,0.00,,,0.00,0,Wunderground v.1.15,2013-02-23 00:45:00,
2013-02-22 16:54:00,61.1,40.1,30.11,South,191,0.0,3.0,46,0.00,,,0.00,0,Wunderground v.1.15,2013-02-23 00:54:00,
2013-02-22 16:59:00,60.6,39.7,30.11,SSW,210,2.0,2.0,46,0.00,,,0.00,0,Wunderground v.1.15,2013-02-23 00:59:00,
2013-02-22 17:05:00,60.3,40.0,30.11,SSW,210,0.0,2.0,47,0.00,,,0.00,0,Wunderground v.1.15,2013-02-23 01:05:00,
2013-02-22 17:14:00,61.0,40.6,30.11,SSW,210,0.0,0.0,47,0.00,,,0.00,0,Wunderground v.1.15,2013-02-23 01:14:00,
2013-02-22 17:19:00,61.4,41.0,30.11,SSW,210,0.0,0.0,47,0.00,,,0.00,0,Wunderground v.1.15,2013-02-23 01:19:00,
2013-02-22 17:24:00,60.3,40.5,30.11,SSW,210,3.0,3.0,48,0.00,,,0.00,0,Wunderground v.1.15,2013-02-23 01:24:00,
2013-02-22 17:30:00,58.5,40.4,30.11,SSW,210,1.0,1.0,51,0.00,,,0.00,0,Wunderground v.1.15,2013-02-23 01:30:00,
2013-02-22 17:40:00,57.1,40.6,30.11,SSW,210,0.0,0.0,54,0.00,,,0.00,0,Wunderground v.1.15,2013-02-23 01:40:00,
2013-02-22 17:45:00,57.0,40.5,30.11,SSW,210,0.0,0.0,54,0.00,,,0.00,0,Wunderground v.1.15,2013-02-23 01:45:00,
2013-02-22 17:54:00,56.7,40.2,30.11,SSW,210,0.0,0.0,54,0.00,,,0.00,0,Wunderground v.1.15,2013-02-23 01:54:00,
2013-02-22 17:59:00,56.4,40.4,30.11,SSW,210,0.0,0.0,55,0.00,,,0.00,0,Wunderground v.1.15,2013-02-23 01:59:00,
2013-02-22 18:05:00,56.2,40.2,30.12,SSW,210,0.0,0.0,55,0.00,,,0.00,0,Wunderground v.1.15,2013-02-23 02:05:00,
2013-02-22 18:14:00,55.4,40.0,30.11,SSW,210,0.0,0.0,56,0.00,,,0.00,0,Wunderground v.1.15,2013-02-23 02:14:00,
2013-02-22 18:20:00,55.2,39.8,30.12,SSW,210,0.0,0.0,56,0.00,,,0.00,0,Wunderground v.1.15,2013-02-23 02:20:00,
2013-02-22 18:25:00,55.2,39.8,30.12,SSW,210,0.0,0.0,56,0.00,,,0.00,0,Wunderground v.1.15,2013-02-23 02:25:00,
2013-02-22 18:35:00,54.7,38.8,30.12,SSW,210,0.0,0.0,55,0.00,,,0.00,0,Wunderground v.1.15,2013-02-23 02:35:00,
2013-02-22 18:40:00,54.3,39.4,30.12,SSW,210,0.0,0.0,57,0.00,,,0.00,0,Wunderground v.1.15,2013-02-23 02:40:00,
2013-02-22 18:49:00,54.1,39.6,30.12,SSW,210,0.0,0.0,58,0.00,,,0.00,0,Wunderground v.1.15,2013-02-23 02:49:00,
2013-02-22 18:54:00,54.2,39.3,30.12,SSW,210,0.0,0.0,57,0.00,,,0.00,0,Wunderground v.1.15,2013-02-23 02:54:00,
2013-02-22 19:00:00,54.2,38.8,30.12,SSW,210,0.0,0.0,56,0.00,,,0.00,0,Wunderground v.1.15,2013-02-23 03:00:00,
2013-02-22 19:05:00,54.2,39.3,30.12,SSW,210,0.0,0.0,57,0.00,,,0.00,0,Wunderground v.1.15,2013-02-23 03:05:00,
2013-02-22 19:14:00,54.1,38.3,30.12,SSW,210,0.0,0.0,55,0.00,,,0.00,0,Wunderground v.1.15,2013-02-23 03:14:00,
2013-02-22 19:19:00,54.1,38.7,30.13,SSW,210,0.0,0.0,56,0.00,,,0.00,0,Wunderground v.1.15,2013-02-23 03:19:00,
2013-02-22 19:25:00,54.1,38.7,30.13,SSW,210,0.0,0.0,56,0.00,,,0.00,0,Wunderground v.1.15,2013-02-23 03:25:00,
2013-02-22 19:35:00,54.1,38.7,30.13,SSW,210,0.0,0.0,56,0.00,,,0.00,0,Wunderground v.1.15,2013-02-23 03:35:00,
2013-02-22 19:44:00,54.0,38.6,30.13,SSW,210,0.0,0.0,56,0.00,,,0.00,0,Wunderground v.1.15,2013-02-23 03:44:00,
2013-02-22 19:50:00,54.0,38.6,30.13,SSW,210,0.0,0.0,56,0.00,,,0.00,0,Wunderground v.1.15,2013-02-23 03:50:00,
2013-02-22 19:59:00,54.1,38.7,30.13,SSW,210,0.0,0.0,56,0.00,,,0.00,0,Wunderground v.1.15,2013-02-23 03:59:00,
2013-02-22 20:05:00,54.1,38.7,30.13,SSW,210,0.0,0.0,56,0.00,,,0.00,0,Wunderground v.1.15,2013-02-23 04:05:00,
2013-02-22 20:15:00,53.5,38.2,30.13,SSW,210,0.0,0.0,56,0.00,,,0.00,0,Wunderground v.1.15,2013-02-23 04:15:00,
2013-02-22 20:20:00,52.8,37.5,30.13,SSW,210,0.0,0.0,56,0.00,,,0.00,0,Wunderground v.1.15,2013-02-23 04:20:00,
2013-02-22 20:29:00,52.2,38.7,30.14,SSW,210,0.0,0.0,60,0.00,,,0.00,0,Wunderground v.1.15,2013-02-23 04:29:00,
2013-02-22 20:35:00,52.3,38.8,30.14,SSW,210,0.0,0.0,60,0.00,,,0.00,0,Wunderground v.1.15,2013-02-23 04:35:00,
2013-02-22 20:44:00,51.9,38.4,30.14,SSW,210,0.0,0.0,60,0.00,,,0.00,0,Wunderground v.1.15,2013-02-23 04:44:00,
2013-02-22 20:50:00,51.5,37.6,30.14,SSW,210,0.0,0.0,59,0.00,,,0.00,0,Wunderground v.1.15,2013-02-23 04:50:00,
2013-02-22 20:59:00,51.4,37.5,30.14,SSW,210,0.0,0.0,59,0.00,,,0.00,0,Wunderground v.1.15,2013-02-23 04:59:00,
2013-02-22 21:04:00,51.4,37.5,30.14,SSW,210,0.0,0.0,59,0.00,,,0.00,0,Wunderground v.1.15,2013-02-23 05:04:00,
2013-02-22 21:15:00,51.2,36.9,30.15,SSW,210,0.0,0.0,58,0.00,,,0.00,0,Wunderground v.1.15,2013-02-23 05:15:00,
2013-02-22 21:19:00,51.1,36.8,30.15,SSW,210,0.0,0.0,58,0.00,,,0.00,0,Wunderground v.1.15,2013-02-23 05:19:00,
2013-02-22 21:24:00,51.1,36.4,30.15,SSW,210,0.0,0.0,57,0.00,,,0.00,0,Wunderground v.1.15,2013-02-23 05:24:00,
2013-02-22 21:29:00,51.0,36.7,30.15,SSW,210,0.0,0.0,58,0.00,,,0.00,0,Wunderground v.1.15,2013-02-23 05:29:00,
2013-02-22 21:39:00,50.6,36.4,30.15,SSW,210,0.0,0.0,58,0.00,,,0.00,0,Wunderground v.1.15,2013-02-23 05:39:00,
2013-02-22 21:44:00,50.4,36.6,30.15,SSW,210,0.0,0.0,59,0.00,,,0.00,0,Wunderground v.1.15,2013-02-23 05:44:00,
2013-02-22 21:49:00,50.3,36.5,30.15,SSW,210,0.0,0.0,59,0.00,,,0.00,0,Wunderground v.1.15,2013-02-23 05:49:00,
2013-02-22 21:55:00,50.3,36.5,30.15,SSW,210,0.0,0.0,59,0.00,,,0.00,0,Wunderground v.1.15,2013-02-23 05:55:00,
2013-02-22 22:05:00,49.7,36.4,30.15,SSW,210,0.0,0.0,60,0.00,,,0.00,0,Wunderground v.1.15,2013-02-23 06:05:00,
2013-02-22 22:14:00,49.4,36.5,30.16,SSW,210,0.0,0.0,61,0.00,,,0.00,0,Wunderground v.1.15,2013-02-23 06:14:00,
2013-02-22 22:20:00,49.2,36.3,30.16,SSW,210,0.0,0.0,61,0.00,,,0.00,0,Wunderground v.1.15,2013-02-23 06:20:00,
2013-02-22 22:29:00,48.9,36.0,30.16,SSW,210,0.0,0.0,61,0.00,,,0.00,0,Wunderground v.1.15,2013-02-23 06:29:00,
2013-02-22 22:39:00,48.7,35.0,30.16,SSW,210,0.0,0.0,59,0.00,,,0.00,0,Wunderground v.1.15,2013-02-23 06:39:00,
2013-02-22 22:44:00,48.6,34.9,30.16,SSW,210,0.0,0.0,59,0.00,,,0.00,0,Wunderground v.1.15,2013-02-23 06:44:00,
2013-02-22 22:49:00,48.5,34.8,30.16,SSW,210,0.0,0.0,59,0.00,,,0.00,0,Wunderground v.1.15,2013-02-23 06:49:00,
2013-02-22 22:55:00,48.4,34.7,30.15,SSW,210,0.0,0.0,59,0.00,,,0.00,0,Wunderground v.1.15,2013-02-23 06:55:00,
2013-02-22 23:05:00,47.9,35.1,30.15,SSW,210,0.0,0.0,61,0.00,,,0.00,0,Wunderground v.1.15,2013-02-23 07:05:00,
2013-02-22 23:14:00,47.8,34.6,30.16,SSW,210,0.0,0.0,60,0.00,,,0.00,0,Wunderground v.1.15,2013-02-23 07:14:00,
2013-02-22 23:19:00,47.7,34.5,30.15,SSW,210,0.0,0.0,60,0.00,,,0.00,0,Wunderground v.1.15,2013-02-23 07:19:00,
2013-02-22 23:25:00,47.6,34.4,30.15,SSW,210,0.0,0.0,60,0.00,,,0.00,0,Wunderground v.1.15,2013-02-23 07:25:00,
2013-02-22 23:34:00,47.6,34.4,30.15,SSW,210,0.0,0.0,60,0.00,,,0.00,0,Wunderground v.1.15,2013-02-23 07:34:00,
2013-02-22 23:40:00,47.6,34.4,30.15,SSW,210,0.0,0.0,60,0.00,,,0.00,0,Wunderground v.1.15,2013-02-23 07:40:00,
2013-02-22 23:49:00,47.3,34.9,30.15,SSW,210,0.0,0.0,62,0.00,,,0.00,0,Wunderground v.1.15,2013-02-23 07:49:00,
2013-02-22 23:55:00,47.1,35.1,30.15,SSW,210,0.0,0.0,63,0.00,,,0.00,0,Wunderground v.1.15,2013-02-23 07:55:00,